sensor_id;sensor_type;location;lat;lon;timestamp;pressure;altitude;pressure_sealevel;temperature;humidity
45253;BME280;63171;50.520;30.486;2024-01-30T00:00:25;102424.88;;;0.12;100.00
45253;BME280;63171;50.520;30.486;2024-01-30T00:01:15;102428.31;;;0.13;100.00
45253;BME280;63171;50.520;30.486;2024-01-30T00:02:05;102432.69;;;0.15;100.00
45253;BME280;63171;50.520;30.486;2024-01-30T00:02:54;102425.84;;;0.17;100.00
45253;BME280;63171;50.520;30.486;2024-01-30T00:03:45;102433.44;;;0.11;100.00
45253;BME280;63171;50.520;30.486;2024-01-30T00:04:35;102437.75;;;0.12;100.00
45253;BME280;63171;50.520;30.486;2024-01-30T00:05:24;102428.41;;;0.16;100.00
45253;BME280;63171;50.520;30.486;2024-01-30T00:06:14;102430.94;;;0.14;100.00
45253;BME280;63171;50.520;30.486;2024-01-30T00:07:03;102432.59;;;0.12;100.00
45253;BME280;63171;50.520;30.486;2024-01-30T00:07:53;102429.13;;;0.10;100.00
45253;BME280;63171;50.520;30.486;2024-01-30T00:08:43;102433.41;;;0.10;100.00
45253;BME280;63171;50.520;30.486;2024-01-30T00:09:35;102436.03;;;0.13;100.00
45253;BME280;63171;50.520;30.486;2024-01-30T00:10:24;102425.81;;;0.14;100.00
45253;BME280;63171;50.520;30.486;2024-01-30T00:11:15;102422.34;;;0.14;100.00
45253;BME280;63171;50.520;30.486;2024-01-30T00:12:07;102426.59;;;0.13;100.00
45253;BME280;63171;50.520;30.486;2024-01-30T00:12:56;102420.56;;;0.11;100.00
45253;BME280;63171;50.520;30.486;2024-01-30T00:13:46;102429.13;;;0.10;100.00
45253;BME280;63171;50.520;30.486;2024-01-30T00:14:36;102428.31;;;0.13;100.00
45253;BME280;63171;50.520;30.486;2024-01-30T00:15:25;102429.13;;;0.10;100.00
45253;BME280;63171;50.520;30.486;2024-01-30T00:16:22;102421.38;;;0.09;100.00
45253;BME280;63171;50.520;30.486;2024-01-30T00:17:11;102420.28;;;-0.01;100.00
45253;BME280;63171;50.520;30.486;2024-01-30T00:18:00;102422.81;;;-0.04;100.00
45253;BME280;63171;50.520;30.486;2024-01-30T00:18:51;102426.28;;;-0.02;100.00
45253;BME280;63171;50.520;30.486;2024-01-30T00:19:40;102422.06;;;0.00;100.00
45253;BME280;63171;50.520;30.486;2024-01-30T00:20:29;102428.09;;;0.02;100.00
45253;BME280;63171;50.520;30.486;2024-01-30T00:21:20;102419.50;;;0.02;100.00
45253;BME280;63171;50.520;30.486;2024-01-30T00:22:09;102424.69;;;0.03;100.00
45253;BME280;63171;50.520;30.486;2024-01-30T00:22:59;102414.41;;;0.05;100.00
45253;BME280;63171;50.520;30.486;2024-01-30T00:23:49;102423.78;;;0.01;100.00
45253;BME280;63171;50.520;30.486;2024-01-30T00:24:38;102422.94;;;0.01;100.00
45253;BME280;63171;50.520;30.486;2024-01-30T00:25:28;102417.81;;;0.02;100.00
45253;BME280;63171;50.520;30.486;2024-01-30T00:26:18;102417.84;;;0.04;100.00
45253;BME280;63171;50.520;30.486;2024-01-30T00:27:09;102416.97;;;0.03;100.00
45253;BME280;63171;50.520;30.486;2024-01-30T00:27:59;102422.16;;;0.05;100.00
45253;BME280;63171;50.520;30.486;2024-01-30T00:28:49;102421.34;;;0.07;100.00
45253;BME280;63171;50.520;30.486;2024-01-30T00:29:38;102419.66;;;0.09;100.00
45253;BME280;63171;50.520;30.486;2024-01-30T00:30:27;102422.28;;;0.12;100.00
45253;BME280;63171;50.520;30.486;2024-01-30T00:31:17;102414.53;;;0.11;100.00
45253;BME280;63171;50.520;30.486;2024-01-30T00:32:07;102414.50;;;0.09;100.00
45253;BME280;63171;50.520;30.486;2024-01-30T00:32:56;102412.78;;;0.08;100.00
45253;BME280;63171;50.520;30.486;2024-01-30T00:33:46;102417.09;;;0.09;100.00
45253;BME280;63171;50.520;30.486;2024-01-30T00:34:35;102408.47;;;0.09;100.00
45253;BME280;63171;50.520;30.486;2024-01-30T00:35:24;102411.06;;;0.09;100.00
45253;BME280;63171;50.520;30.486;2024-01-30T00:36:16;102413.63;;;0.09;100.00
45253;BME280;63171;50.520;30.486;2024-01-30T00:37:05;102401.69;;;0.12;100.00
45253;BME280;63171;50.520;30.486;2024-01-30T00:37:55;102404.25;;;0.12;100.00
45253;BME280;63171;50.520;30.486;2024-01-30T00:38:46;102410.19;;;0.08;100.00
45253;BME280;63171;50.520;30.486;2024-01-30T00:39:35;102406.69;;;0.05;100.00
45253;BME280;63171;50.520;30.486;2024-01-30T00:40:25;102396.34;;;0.03;100.00
45253;BME280;63171;50.520;30.486;2024-01-30T00:41:18;102399.75;;;0.01;100.00
45253;BME280;63171;50.520;30.486;2024-01-30T00:42:09;102398.97;;;0.05;100.00
45253;BME280;63171;50.520;30.486;2024-01-30T00:42:58;102399.88;;;0.08;100.00
45253;BME280;63171;50.520;30.486;2024-01-30T00:43:49;102403.34;;;0.09;100.00
45253;BME280;63171;50.520;30.486;2024-01-30T00:44:38;102404.06;;;0.02;100.00
45253;BME280;63171;50.520;30.486;2024-01-30T00:45:27;102397.22;;;0.04;100.00
45253;BME280;63171;50.520;30.486;2024-01-30T00:46:18;102392.88;;;0.01;100.00
45253;BME280;63171;50.520;30.486;2024-01-30T00:47:07;102393.75;;;0.02;100.00
45253;BME280;63171;50.520;30.486;2024-01-30T00:47:56;102389.53;;;0.05;100.00
45253;BME280;63171;50.520;30.486;2024-01-30T00:48:46;102388.72;;;0.08;100.00
45253;BME280;63171;50.520;30.486;2024-01-30T00:49:36;102386.09;;;0.06;100.00
45253;BME280;63171;50.520;30.486;2024-01-30T00:50:26;102377.44;;;0.01;100.00
45253;BME280;63171;50.520;30.486;2024-01-30T00:51:15;102383.25;;;-0.06;100.00
45253;BME280;63171;50.520;30.486;2024-01-30T00:52:05;102389.19;;;-0.10;100.00
45253;BME280;63171;50.520;30.486;2024-01-30T00:52:55;102384.88;;;-0.11;100.00
45253;BME280;63171;50.520;30.486;2024-01-30T00:53:45;102382.28;;;-0.13;100.00
45253;BME280;63171;50.520;30.486;2024-01-30T00:54:35;102381.34;;;-0.15;100.00
45253;BME280;63171;50.520;30.486;2024-01-30T00:55:24;102378.00;;;-0.12;100.00
45253;BME280;63171;50.520;30.486;2024-01-30T00:56:14;102374.59;;;-0.11;100.00
45253;BME280;63171;50.520;30.486;2024-01-30T00:57:07;102374.69;;;-0.05;100.00
45253;BME280;63171;50.520;30.486;2024-01-30T00:57:58;102378.13;;;-0.06;100.00
45253;BME280;63171;50.520;30.486;2024-01-30T00:58:47;102373.78;;;-0.09;100.00
45253;BME280;63171;50.520;30.486;2024-01-30T00:59:38;102373.81;;;-0.07;100.00
45253;BME280;63171;50.520;30.486;2024-01-30T01:09:56;102355.31;;;-0.27;100.00
45253;BME280;63171;50.520;30.486;2024-01-30T01:11:19;102352.88;;;-0.22;100.00
45253;BME280;63171;50.520;30.486;2024-01-30T01:13:13;102343.41;;;-0.23;100.00
45253;BME280;63171;50.520;30.486;2024-01-30T01:14:44;102333.13;;;-0.22;100.00
45253;BME280;63171;50.520;30.486;2024-01-30T01:21:01;102335.03;;;-0.52;100.00
45253;BME280;63171;50.520;30.486;2024-01-30T01:22:42;102331.59;;;-0.53;100.00
45253;BME280;63171;50.520;30.486;2024-01-30T01:24:24;102330.78;;;-0.52;100.00
45253;BME280;63171;50.520;30.486;2024-01-30T01:27:21;102324.00;;;-0.47;100.00
45253;BME280;63171;50.520;30.486;2024-01-30T02:36:16;102276.59;;;-0.56;100.00
45253;BME280;63171;50.520;30.486;2024-01-30T02:39:30;102284.06;;;-0.67;100.00
45253;BME280;63171;50.520;30.486;2024-01-30T02:41:00;102279.88;;;-0.64;100.00
45253;BME280;63171;50.520;30.486;2024-01-30T02:45:07;102288.50;;;-0.62;100.00
45253;BME280;63171;50.520;30.486;2024-01-30T02:46:52;102295.34;;;-0.62;100.00
45253;BME280;63171;50.520;30.486;2024-01-30T06:54:45;102224.88;;;0.67;100.00
45253;BME280;63171;50.520;30.486;2024-01-30T07:08:36;102216.13;;;1.15;100.00
45253;BME280;63171;50.520;30.486;2024-01-30T07:11:47;102217.69;;;1.05;100.00
45253;BME280;63171;50.520;30.486;2024-01-30T07:12:45;102216.97;;;1.14;100.00
45253;BME280;63171;50.520;30.486;2024-01-30T19:34:25;101817.47;;;1.96;100.00
45253;BME280;63171;50.520;30.486;2024-01-30T19:37:11;101822.63;;;1.93;100.00
